Time;durP1;ratioP1;P1;durP2;ratioP2;P2;SDS_P1;SDS_P2;PMS_P1;PMS_P2;Temp;Humidity;BMP_temperature;BMP_pressure;BME280_temperature;BME280_humidity;BME280_pressure;Samples;Min_cycle;Max_cycle;Signal;HPM_P1;HPM_P2
2024/04/14 00:01:20;;;;;;;;;;;;;;;11.97;100.00;100734.67;107625;1260;71400;-77
2024/04/14 00:03:54;;;;;;;;;;;;;;;11.87;100.00;100733.77;107651;1260;72367;-78
2024/04/14 00:06:22;;;;;;;;;;;;;;;11.78;100.00;100731.82;107705;1261;62000;-74
2024/04/14 00:08:52;;;;;;;;;;;;;;;11.67;100.00;100731.55;107704;1260;60897;-77
2024/04/14 00:11:19;;;;;;;;;;;;;;;11.61;100.00;100726.33;107666;1260;75564;-75
2024/04/14 00:13:45;;;;;;;;;;;;;;;11.56;100.00;100724.34;107744;1261;71375;-77
2024/04/14 00:16:12;;;;;;;;;;;;;;;11.52;100.00;100726.02;107775;1260;72804;-76
2024/04/14 00:18:39;;;;;;;;;;;;;;;11.41;100.00;100728.94;107750;1259;61930;-77
2024/04/14 00:21:07;;;;;;;;;;;;;;;11.28;100.00;100729.45;107770;1259;61922;-76
2024/04/14 00:23:33;;;;;;;;;;;;;;;11.32;100.00;100726.36;107705;1260;75223;-77
2024/04/14 00:26:00;;;;;;;;;;;;;;;11.35;100.00;100728.48;107664;1261;72782;-77
2024/04/14 00:28:27;;;;;;;;;;;;;;;11.29;100.00;100727.20;107646;1260;72454;-77
2024/04/14 00:30:53;;;;;;;;;;;;;;;11.25;100.00;100728.85;107575;1266;60557;-78
2024/04/14 00:33:20;;;;;;;;;;;;;;;11.25;100.00;100734.31;107649;1259;61882;-76
2024/04/14 00:35:47;;;;;;;;;;;;;;;11.57;100.00;100734.59;107660;1260;73057;-75
2024/04/14 00:38:14;;;;;;;;;;;;;;;11.54;100.00;100739.04;107624;1260;72722;-76
2024/04/14 00:40:41;;;;;;;;;;;;;;;11.43;100.00;100741.80;107603;1259;73555;-76
2024/04/14 00:43:07;;;;;;;;;;;;;;;11.22;100.00;100748.39;107601;1263;62146;-77
2024/04/14 00:45:34;;;;;;;;;;;;;;;11.19;100.00;100749.27;107650;1261;61989;-76
2024/04/14 00:48:03;;;;;;;;;;;;;;;11.23;100.00;100754.17;107643;1260;75491;-76
2024/04/14 00:50:30;;;;;;;;;;;;;;;11.30;100.00;100756.38;107867;1259;70726;-77
2024/04/14 00:52:57;;;;;;;;;;;;;;;11.53;100.00;100754.48;107679;1260;72673;-76
2024/04/14 00:55:24;;;;;;;;;;;;;;;11.65;100.00;100752.15;107730;1260;61936;-79
2024/04/14 00:57:50;;;;;;;;;;;;;;;11.70;100.00;100750.36;107653;1260;61913;-77
2024/04/14 01:00:17;;;;;;;;;;;;;;;11.75;100.00;100753.27;107710;1260;74029;-75
2024/04/14 01:02:45;;;;;;;;;;;;;;;11.81;100.00;100749.71;107591;1259;72537;-78
2024/04/14 01:05:11;;;;;;;;;;;;;;;11.84;100.00;100748.15;107668;1260;72615;-77
2024/04/14 01:07:39;;;;;;;;;;;;;;;11.88;100.00;100746.52;107674;1261;62043;-77
2024/04/14 01:10:06;;;;;;;;;;;;;;;11.89;100.00;100739.08;107680;1259;61992;-76
2024/04/14 01:12:34;;;;;;;;;;;;;;;11.91;100.00;100737.54;107749;1259;75457;-76
2024/04/14 01:15:01;;;;;;;;;;;;;;;11.71;100.00;100741.27;107675;1260;72673;-75
2024/04/14 01:17:28;;;;;;;;;;;;;;;11.67;100.00;100739.85;107639;1263;72667;-76
2024/04/14 01:19:54;;;;;;;;;;;;;;;11.67;100.00;100739.05;107539;1259;62103;-76
2024/04/14 01:22:21;;;;;;;;;;;;;;;11.68;100.00;100738.63;107621;1260;60228;-77
2024/04/14 01:24:49;;;;;;;;;;;;;;;11.65;100.00;100737.91;107733;1260;75513;-75
2024/04/14 01:27:16;;;;;;;;;;;;;;;11.70;100.00;100741.20;107698;1259;71894;-76
2024/04/14 01:29:42;;;;;;;;;;;;;;;11.74;100.00;100737.11;107626;1259;71240;-76
2024/04/14 01:32:09;;;;;;;;;;;;;;;11.76;100.00;100738.29;107659;1259;62037;-76
2024/04/14 01:34:36;;;;;;;;;;;;;;;11.78;100.00;100734.56;107649;1259;62159;-77
2024/04/14 01:37:03;;;;;;;;;;;;;;;11.94;100.00;100732.34;107660;1260;75457;-78
2024/04/14 01:39:30;;;;;;;;;;;;;;;12.10;100.00;100733.38;107709;1259;72702;-76
2024/04/14 01:41:57;;;;;;;;;;;;;;;12.07;100.00;100735.52;107798;1260;71108;-75
2024/04/14 01:44:23;;;;;;;;;;;;;;;12.06;100.00;100737.27;107708;1263;62025;-76
2024/04/14 01:46:50;;;;;;;;;;;;;;;12.00;100.00;100734.04;107636;1260;61280;-77
2024/04/14 01:49:17;;;;;;;;;;;;;;;11.94;100.00;100733.16;107738;1259;61931;-76
2024/04/14 01:51:44;;;;;;;;;;;;;;;11.89;100.00;100730.79;107614;1261;72658;-77
2024/04/14 01:54:12;;;;;;;;;;;;;;;11.85;100.00;100733.16;107580;1259;72495;-76
2024/04/14 01:56:39;;;;;;;;;;;;;;;11.80;100.00;100733.35;107577;1260;62014;-76
2024/04/14 01:59:05;;;;;;;;;;;;;;;11.74;100.00;100731.22;107650;1260;62027;-75
2024/04/14 02:01:32;;;;;;;;;;;;;;;11.70;100.00;100730.98;107647;1260;75433;-76
2024/04/14 02:03:59;;;;;;;;;;;;;;;11.66;100.00;100726.69;107785;1260;72774;-76
2024/04/14 02:06:25;;;;;;;;;;;;;;;11.61;100.00;100722.12;107783;1259;71254;-76
2024/04/14 02:08:52;;;;;;;;;;;;;;;11.56;100.00;100725.71;107632;1259;61909;-79
2024/04/14 02:11:19;;;;;;;;;;;;;;;11.49;100.00;100729.11;107608;1260;62178;-76
2024/04/14 02:13:45;;;;;;;;;;;;;;;11.43;100.00;100741.85;107714;1262;75268;-76
2024/04/14 02:16:12;;;;;;;;;;;;;;;11.38;100.00;100745.19;107739;1260;62278;-76
2024/04/14 02:18:38;;;;;;;;;;;;;;;11.36;100.00;100747.48;107623;1262;61954;-77
2024/04/14 02:21:05;;;;;;;;;;;;;;;11.34;100.00;100753.02;107567;1259;61730;-76
2024/04/14 02:23:32;;;;;;;;;;;;;;;11.32;100.00;100755.77;107658;1260;61910;-75
2024/04/14 02:25:59;;;;;;;;;;;;;;;11.30;100.00;100758.55;107655;1260;75502;-76
2024/04/14 02:28:27;;;;;;;;;;;;;;;11.28;100.00;100763.67;107702;1260;72574;-77
2024/04/14 02:30:54;;;;;;;;;;;;;;;11.24;100.00;100769.63;107683;1259;72793;-76
2024/04/14 02:33:21;;;;;;;;;;;;;;;11.27;100.00;100771.48;107632;1260;62053;-77
2024/04/14 02:35:57;;;;;;;;;;;;;;;11.32;100.00;100775.69;107702;1259;62028;-76
2024/04/14 02:38:24;;;;;;;;;;;;;;;11.34;100.00;100771.85;107707;1259;73877;-76
2024/04/14 02:41:01;;;;;;;;;;;;;;;11.35;100.00;100770.20;107761;1260;72657;-76
2024/04/14 02:43:28;;;;;;;;;;;;;;;11.36;100.00;100765.52;107626;1260;72592;-79
2024/04/14 02:45:55;;;;;;;;;;;;;;;11.36;100.00;100758.23;107706;1260;62044;-78
2024/04/14 02:48:22;;;;;;;;;;;;;;;11.34;100.00;100754.52;107632;1259;61763;-78
2024/04/14 02:50:49;;;;;;;;;;;;;;;11.32;100.00;100769.44;107653;1260;74086;-78
2024/04/14 02:53:16;;;;;;;;;;;;;;;11.27;100.00;100773.18;107670;1260;71447;-77
2024/04/14 02:55:43;;;;;;;;;;;;;;;11.25;100.00;100763.86;107791;1259;72376;-76
2024/04/14 02:58:10;;;;;;;;;;;;;;;11.22;100.00;100758.77;107623;1259;61986;-77
2024/04/14 03:00:36;;;;;;;;;;;;;;;11.20;100.00;100758.27;107679;1259;62018;-78
2024/04/14 03:03:03;;;;;;;;;;;;;;;11.18;100.00;100755.20;107656;1259;75571;-79
2024/04/14 03:05:30;;;;;;;;;;;;;;;11.16;100.00;100745.79;107651;1259;72752;-77
2024/04/14 03:07:58;;;;;;;;;;;;;;;11.14;100.00;100738.92;107623;1260;72440;-77
2024/04/14 03:10:26;;;;;;;;;;;;;;;11.11;100.00;100732.97;107651;1259;61958;-77
2024/04/14 03:12:53;;;;;;;;;;;;;;;11.10;100.00;100724.51;107699;1259;61889;-77
2024/04/14 03:15:20;;;;;;;;;;;;;;;11.10;100.00;100722.27;107655;1259;75333;-77
2024/04/14 03:17:47;;;;;;;;;;;;;;;11.07;100.00;100717.81;107660;1259;72709;-76
2024/04/14 03:20:13;;;;;;;;;;;;;;;11.07;100.00;100716.14;107676;1260;71140;-74
2024/04/14 03:22:41;;;;;;;;;;;;;;;11.05;100.00;100716.02;107778;1259;61941;-75
2024/04/14 03:25:08;;;;;;;;;;;;;;;11.02;100.00;100723.60;107816;1260;62015;-76
2024/04/14 03:27:35;;;;;;;;;;;;;;;10.95;100.00;100732.30;107685;1259;75545;-76
2024/04/14 03:30:02;;;;;;;;;;;;;;;10.87;100.00;100732.19;107639;1259;72673;-76
2024/04/14 03:32:29;;;;;;;;;;;;;;;10.78;100.00;100732.75;107698;1260;72580;-76
2024/04/14 03:34:56;;;;;;;;;;;;;;;10.53;100.00;100734.16;107712;1260;61939;-76
2024/04/14 03:37:23;;;;;;;;;;;;;;;10.57;100.00;100734.58;107732;1260;61936;-76
2024/04/14 03:39:50;;;;;;;;;;;;;;;10.70;100.00;100732.02;107745;1259;75387;-76
2024/04/14 03:42:17;;;;;;;;;;;;;;;10.73;100.00;100737.68;107704;1259;72534;-75
2024/04/14 03:44:44;;;;;;;;;;;;;;;10.75;100.00;100739.46;107550;1259;72540;-77
2024/04/14 03:47:11;;;;;;;;;;;;;;;10.74;100.00;100739.45;107697;1259;63049;-77
2024/04/14 03:49:42;;;;;;;;;;;;;;;10.74;100.00;100740.89;107600;1259;61965;-76
2024/04/14 03:52:12;;;;;;;;;;;;;;;10.75;100.00;100744.85;107764;1259;74247;-76
2024/04/14 03:54:41;;;;;;;;;;;;;;;10.79;100.00;100740.88;107762;1260;71337;-78
2024/04/14 03:57:15;;;;;;;;;;;;;;;10.83;100.00;100745.30;107729;1260;72768;-77
2024/04/14 03:59:59;;;;;;;;;;;;;;;10.89;100.00;100749.02;107869;1260;60602;-77
2024/04/14 04:02:57;;;;;;;;;;;;;;;10.93;100.00;100752.39;107524;1259;62565;-77
2024/04/14 04:11:48;;;;;;;;;;;;;;;11.03;100.00;100741.67;107583;1259;72390;-78
2024/04/14 04:14:16;;;;;;;;;;;;;;;11.04;100.00;100737.58;107793;1259;62020;-77
2024/04/14 04:16:43;;;;;;;;;;;;;;;11.09;100.00;100740.86;107756;1259;61325;-78
2024/04/14 04:19:13;;;;;;;;;;;;;;;11.15;100.00;100738.02;107664;1259;75516;-77
2024/04/14 04:21:52;;;;;;;;;;;;;;;11.24;100.00;100737.87;107635;1259;71247;-76
2024/04/14 04:24:19;;;;;;;;;;;;;;;11.33;100.00;100736.91;107547;1259;72733;-76
2024/04/14 04:26:49;;;;;;;;;;;;;;;11.43;100.00;100740.19;107439;1261;60915;-77
2024/04/14 04:29:16;;;;;;;;;;;;;;;11.51;100.00;100745.54;107517;1260;61904;-76
2024/04/14 04:31:42;;;;;;;;;;;;;;;11.61;100.00;100744.42;107540;1260;75303;-77
2024/04/14 04:34:09;;;;;;;;;;;;;;;11.72;100.00;100743.41;107528;1260;72732;-76
2024/04/14 04:36:36;;;;;;;;;;;;;;;11.82;100.00;100733.84;107580;1260;72689;-76
2024/04/14 04:39:03;;;;;;;;;;;;;;;11.91;100.00;100728.43;107625;1259;62051;-76
2024/04/14 04:41:30;;;;;;;;;;;;;;;12.01;100.00;100728.38;107667;1259;62021;-76
2024/04/14 04:43:57;;;;;;;;;;;;;;;12.11;100.00;100721.18;107614;1260;75373;-76
2024/04/14 04:46:24;;;;;;;;;;;;;;;12.21;100.00;100716.39;107578;1260;72764;-76
2024/04/14 04:48:56;;;;;;;;;;;;;;;12.28;100.00;100716.89;107660;1259;71505;-77
2024/04/14 04:51:23;;;;;;;;;;;;;;;12.32;100.00;100716.20;107894;1259;62294;-78
2024/04/14 04:53:50;;;;;;;;;;;;;;;12.38;100.00;100712.30;107581;1260;59968;-77
2024/04/14 04:56:16;;;;;;;;;;;;;;;12.47;100.00;100713.55;107565;1259;61266;-77
2024/04/14 04:58:43;;;;;;;;;;;;;;;12.58;100.00;100710.73;107644;1260;62065;-77
2024/04/14 05:01:09;;;;;;;;;;;;;;;12.68;100.00;100705.33;107573;1260;61903;-77
2024/04/14 05:03:37;;;;;;;;;;;;;;;12.79;100.00;100698.89;107631;1260;61942;-78
2024/04/14 05:06:04;;;;;;;;;;;;;;;12.90;100.00;100696.75;107599;1260;62000;-77
2024/04/14 05:08:32;;;;;;;;;;;;;;;13.00;100.00;100696.15;107494;1259;75478;-77
2024/04/14 05:10:58;;;;;;;;;;;;;;;13.08;100.00;100691.76;107631;1259;73143;-76
2024/04/14 05:13:26;;;;;;;;;;;;;;;13.17;100.00;100687.98;107670;1259;72826;-76
2024/04/14 05:15:53;;;;;;;;;;;;;;;13.26;100.00;100680.38;107559;1260;62013;-76
2024/04/14 05:18:21;;;;;;;;;;;;;;;13.35;100.00;100678.16;107655;1259;61936;-77
2024/04/14 05:20:48;;;;;;;;;;;;;;;13.42;100.00;100671.02;107510;1259;74034;-77
2024/04/14 05:23:15;;;;;;;;;;;;;;;13.50;100.00;100671.84;107647;1263;72679;-77
2024/04/14 05:25:41;;;;;;;;;;;;;;;13.59;100.00;100674.66;107564;1259;72593;-76
2024/04/14 05:28:08;;;;;;;;;;;;;;;13.72;99.88;100671.81;107532;1260;61910;-77
2024/04/14 05:30:36;;;;;;;;;;;;;;;13.82;98.39;100674.34;107512;1260;62012;-78
2024/04/14 05:33:03;;;;;;;;;;;;;;;13.94;97.32;100675.90;107526;1260;75546;-76
2024/04/14 05:35:30;;;;;;;;;;;;;;;14.07;95.20;100672.72;107556;1260;72664;-76
2024/04/14 05:37:56;;;;;;;;;;;;;;;14.18;93.39;100676.52;107591;1261;61904;-77
2024/04/14 05:40:25;;;;;;;;;;;;;;;14.26;91.46;100678.14;107865;1259;62028;-79
2024/04/14 05:42:54;;;;;;;;;;;;;;;14.37;89.31;100677.75;107628;1260;61936;-76
2024/04/14 05:45:25;;;;;;;;;;;;;;;14.42;85.09;100669.61;107531;1260;75770;-76
2024/04/14 05:47:55;;;;;;;;;;;;;;;14.47;83.98;100667.52;107578;1261;71394;-77
2024/04/14 05:50:22;;;;;;;;;;;;;;;14.56;83.36;100662.38;107592;1259;72676;-75
2024/04/14 05:52:49;;;;;;;;;;;;;;;14.69;82.59;100659.32;107397;1262;62217;-76
2024/04/14 05:55:15;;;;;;;;;;;;;;;14.83;79.49;100666.08;107446;1259;60383;-76
2024/04/14 05:57:42;;;;;;;;;;;;;;;14.87;76.31;100665.67;107467;1259;74003;-75
2024/04/14 06:00:09;;;;;;;;;;;;;;;14.92;76.47;100662.56;107496;1265;72028;-77
2024/04/14 06:02:42;;;;;;;;;;;;;;;15.05;76.93;100662.44;107420;1260;73125;-76
2024/04/14 06:05:09;;;;;;;;;;;;;;;15.20;74.63;100663.58;107407;1260;61938;-77
2024/04/14 06:07:36;;;;;;;;;;;;;;;15.32;73.27;100659.68;107589;1260;62328;-76
2024/04/14 06:10:03;;;;;;;;;;;;;;;15.37;71.00;100655.70;107641;1261;75544;-76
2024/04/14 06:12:30;;;;;;;;;;;;;;;15.42;71.27;100653.72;107607;1260;73254;-76
2024/04/14 06:14:58;;;;;;;;;;;;;;;15.49;70.42;100651.59;107513;1260;71239;-76
2024/04/14 06:17:25;;;;;;;;;;;;;;;15.53;69.18;100647.27;107600;1260;62146;-76
2024/04/14 06:19:52;;;;;;;;;;;;;;;15.62;69.71;100642.45;107653;1260;61945;-77
2024/04/14 06:22:18;;;;;;;;;;;;;;;15.74;69.83;100639.95;107565;1259;73873;-76
2024/04/14 06:24:45;;;;;;;;;;;;;;;15.88;69.30;100640.13;107583;1260;72714;-77
2024/04/14 06:27:12;;;;;;;;;;;;;;;15.97;68.45;100630.69;107631;1261;71442;-78
2024/04/14 06:29:39;;;;;;;;;;;;;;;16.09;69.14;100626.70;107600;1260;62024;-77
2024/04/14 06:32:06;;;;;;;;;;;;;;;16.20;67.53;100627.45;107592;1260;62054;-77
2024/04/14 06:34:32;;;;;;;;;;;;;;;16.23;66.42;100620.73;107517;1259;75377;-76
2024/04/14 06:36:59;;;;;;;;;;;;;;;16.26;66.16;100626.49;107582;1259;72850;-76
2024/04/14 06:39:26;;;;;;;;;;;;;;;16.32;66.13;100626.84;107639;1263;72641;-77
2024/04/14 06:41:53;;;;;;;;;;;;;;;16.37;64.90;100625.46;107569;1260;62119;-77
2024/04/14 06:44:20;;;;;;;;;;;;;;;16.37;63.77;100620.92;107676;1261;61945;-76
2024/04/14 06:46:46;;;;;;;;;;;;;;;16.37;64.11;100615.77;107711;1260;75273;-77
2024/04/14 06:49:13;;;;;;;;;;;;;;;16.42;64.30;100613.35;107706;1261;71252;-76
2024/04/14 06:51:40;;;;;;;;;;;;;;;16.55;65.20;100614.13;107690;1259;72890;-76
2024/04/14 06:54:07;;;;;;;;;;;;;;;16.76;64.82;100615.82;107718;1259;61933;-77
2024/04/14 06:56:35;;;;;;;;;;;;;;;16.91;61.19;100606.35;107755;1259;61936;-75
2024/04/14 06:59:02;;;;;;;;;;;;;;;16.95;60.13;100612.01;107612;1260;72882;-77
2024/04/14 07:01:29;;;;;;;;;;;;;;;16.93;59.82;100610.30;107268;1260;483469;-80
2024/04/14 07:03:56;;;;;;;;;;;;;;;16.87;59.34;100609.60;107627;1262;71419;-78
2024/04/14 07:06:23;;;;;;;;;;;;;;;16.83;59.30;100613.71;107746;1259;62352;-78
2024/04/14 07:08:50;;;;;;;;;;;;;;;16.84;59.76;100614.61;107678;1259;60471;-78
2024/04/14 07:11:16;;;;;;;;;;;;;;;16.90;59.66;100613.21;107706;1260;74642;-76
2024/04/14 07:13:43;;;;;;;;;;;;;;;16.96;59.43;100609.66;107685;1261;71352;-78
2024/04/14 07:16:11;;;;;;;;;;;;;;;17.03;58.93;100610.55;107680;1259;72453;-77
2024/04/14 07:18:38;;;;;;;;;;;;;;;17.10;59.12;100603.35;107697;1259;62054;-76
2024/04/14 07:21:05;;;;;;;;;;;;;;;17.19;59.55;100603.65;107620;1261;62033;-75
2024/04/14 07:23:33;;;;;;;;;;;;;;;17.29;59.00;100608.82;107609;1260;75526;-77
2024/04/14 07:26:01;;;;;;;;;;;;;;;17.35;58.40;100609.44;107626;1259;72818;-77
2024/04/14 07:28:32;;;;;;;;;;;;;;;17.35;57.78;100612.80;107723;1259;72395;-77
2024/04/14 07:30:59;;;;;;;;;;;;;;;17.32;57.75;100612.41;107680;1259;60128;-76
2024/04/14 07:33:26;;;;;;;;;;;;;;;17.30;56.80;100605.76;107588;1260;61993;-77
2024/04/14 07:35:53;;;;;;;;;;;;;;;17.27;56.83;100595.39;107607;1261;75490;-75
2024/04/14 07:38:25;;;;;;;;;;;;;;;17.22;56.89;100590.91;107633;1260;75595;-76
2024/04/14 07:40:52;;;;;;;;;;;;;;;17.17;57.27;100594.40;107559;1260;72680;-77
2024/04/14 07:43:19;;;;;;;;;;;;;;;17.19;57.61;100593.13;107600;1260;61932;-77
2024/04/14 07:45:46;;;;;;;;;;;;;;;17.24;57.25;100592.54;107593;1262;61973;-76
2024/04/14 07:48:13;;;;;;;;;;;;;;;17.26;56.96;100592.46;107621;1261;75354;-77
2024/04/14 07:50:43;;;;;;;;;;;;;;;17.31;57.07;100591.97;107603;1260;72609;-77
2024/04/14 07:53:10;;;;;;;;;;;;;;;17.35;56.50;100590.98;107624;1260;73908;-77
2024/04/14 07:55:37;;;;;;;;;;;;;;;17.37;56.55;100589.14;107559;1260;62068;-77
2024/04/14 07:58:04;;;;;;;;;;;;;;;17.39;56.77;100583.01;107595;1261;62067;-76
2024/04/14 08:00:31;;;;;;;;;;;;;;;17.44;56.97;100580.97;107744;1261;74813;-79
2024/04/14 08:02:58;;;;;;;;;;;;;;;17.59;56.84;100580.59;107596;1260;73202;-77
2024/04/14 08:05:24;;;;;;;;;;;;;;;17.68;56.08;100576.08;107605;1260;71489;-78
2024/04/14 08:07:52;;;;;;;;;;;;;;;17.75;56.12;100563.02;107631;1260;62051;-77
2024/04/14 08:10:19;;;;;;;;;;;;;;;17.85;55.59;100566.05;107697;1260;61922;-77
2024/04/14 08:12:47;;;;;;;;;;;;;;;17.95;55.21;100564.36;107523;1260;74106;-78
2024/04/14 08:15:13;;;;;;;;;;;;;;;18.04;54.95;100558.64;107637;1260;72865;-79
2024/04/14 08:17:41;;;;;;;;;;;;;;;18.18;54.96;100553.64;107619;1261;72023;-77
2024/04/14 08:20:07;;;;;;;;;;;;;;;18.35;54.53;100547.86;107660;1261;61891;-78
2024/04/14 08:22:34;;;;;;;;;;;;;;;18.50;53.77;100545.60;107595;1260;60209;-77
2024/04/14 08:25:01;;;;;;;;;;;;;;;18.65;53.83;100542.17;107600;1265;75565;-77
2024/04/14 08:27:28;;;;;;;;;;;;;;;18.83;53.19;100543.55;107683;1260;72798;-76
2024/04/14 08:29:58;;;;;;;;;;;;;;;18.99;52.37;100538.14;107528;1260;72603;-76
2024/04/14 08:32:24;;;;;;;;;;;;;;;19.14;52.10;100528.46;107606;1260;61995;-78
2024/04/14 08:34:51;;;;;;;;;;;;;;;19.30;51.40;100524.59;107798;1259;62044;-78
2024/04/14 08:37:19;;;;;;;;;;;;;;;19.41;51.38;100514.94;107677;1259;75542;-77
2024/04/14 08:39:47;;;;;;;;;;;;;;;19.53;50.93;100510.67;107653;1261;71940;-78
2024/04/14 08:42:14;;;;;;;;;;;;;;;19.63;50.29;100503.02;107609;1259;72385;-77
2024/04/14 08:44:41;;;;;;;;;;;;;;;19.67;49.59;100506.02;107703;1259;60719;-78
2024/04/14 08:47:08;;;;;;;;;;;;;;;19.67;49.85;100502.14;107642;1260;62010;-79
2024/04/14 08:49:36;;;;;;;;;;;;;;;19.74;49.73;100497.93;107563;1261;75521;-77
2024/04/14 08:52:03;;;;;;;;;;;;;;;19.84;49.75;100497.26;107612;1260;72639;-75
2024/04/14 08:54:31;;;;;;;;;;;;;;;19.96;49.29;100495.27;107560;1260;71472;-77
2024/04/14 08:56:59;;;;;;;;;;;;;;;20.00;48.93;100494.35;107744;1262;59785;-77
2024/04/14 08:59:26;;;;;;;;;;;;;;;20.04;48.68;100493.30;107635;1259;61942;-77
2024/04/14 09:02:00;;;;;;;;;;;;;;;20.14;48.51;100487.34;107639;1261;75741;-77
2024/04/14 09:04:28;;;;;;;;;;;;;;;20.27;47.31;100480.61;107604;1260;72746;-79
2024/04/14 09:06:55;;;;;;;;;;;;;;;20.23;46.62;100472.77;107525;1261;72648;-77
2024/04/14 09:09:22;;;;;;;;;;;;;;;20.15;47.27;100465.94;107583;1261;61932;-76
2024/04/14 09:11:52;;;;;;;;;;;;;;;20.15;47.85;100454.77;107599;1260;61991;-78
2024/04/14 09:14:19;;;;;;;;;;;;;;;20.26;48.10;100455.46;107641;1259;75539;-78
2024/04/14 09:16:45;;;;;;;;;;;;;;;20.35;47.46;100450.71;107678;1261;72843;-79
2024/04/14 09:19:13;;;;;;;;;;;;;;;20.44;47.83;100441.42;107585;1259;72730;-77
2024/04/14 09:21:40;;;;;;;;;;;;;;;20.61;47.36;100440.73;107612;1261;62140;-77
2024/04/14 09:24:07;;;;;;;;;;;;;;;20.75;46.72;100442.61;107686;1261;62012;-77
2024/04/14 09:26:34;;;;;;;;;;;;;;;20.84;46.72;100434.70;107659;1260;75512;-76
2024/04/14 09:29:04;;;;;;;;;;;;;;;20.94;46.17;100429.14;107657;1260;72845;-77
2024/04/14 09:31:31;;;;;;;;;;;;;;;21.05;46.44;100424.82;107606;1260;72763;-77
2024/04/14 09:33:58;;;;;;;;;;;;;;;21.19;46.48;100421.90;107539;1261;62016;-78
2024/04/14 09:36:26;;;;;;;;;;;;;;;21.31;45.80;100417.46;107621;1261;60124;-77
2024/04/14 09:38:52;;;;;;;;;;;;;;;21.37;45.76;100415.68;107892;1263;74299;-79
2024/04/14 09:41:22;;;;;;;;;;;;;;;21.47;45.60;100415.77;107555;1261;71517;-77
2024/04/14 09:43:50;;;;;;;;;;;;;;;21.55;44.94;100411.58;107603;1260;73737;-78
2024/04/14 09:46:17;;;;;;;;;;;;;;;21.57;44.98;100409.26;107554;1261;62045;-77
2024/04/14 09:48:44;;;;;;;;;;;;;;;21.58;44.80;100398.80;107560;1261;61907;-78
2024/04/14 09:51:13;;;;;;;;;;;;;;;21.63;45.00;100397.05;107554;1260;75489;-78
2024/04/14 09:53:40;;;;;;;;;;;;;;;21.65;44.65;100392.39;107641;1259;71610;-79
2024/04/14 09:56:07;;;;;;;;;;;;;;;21.60;44.94;100392.29;107608;1261;71392;-76
2024/04/14 09:58:34;;;;;;;;;;;;;;;21.67;45.33;100380.52;107486;1262;61903;-77
2024/04/14 10:01:05;;;;;;;;;;;;;;;21.83;44.73;100374.87;107611;1261;60777;-77
2024/04/14 10:03:32;;;;;;;;;;;;;;;21.89;43.93;100379.77;107616;1262;75566;-78
2024/04/14 10:05:59;;;;;;;;;;;;;;;21.90;44.00;100375.50;107630;1262;72743;-78
2024/04/14 10:08:31;;;;;;;;;;;;;;;21.90;43.87;100371.73;107581;1261;72579;-77
2024/04/14 10:10:58;;;;;;;;;;;;;;;21.94;44.24;100370.20;107558;1265;61862;-77
2024/04/14 10:13:24;;;;;;;;;;;;;;;21.95;43.63;100370.16;107611;1262;61897;-77
2024/04/14 10:15:55;;;;;;;;;;;;;;;21.83;43.87;100368.83;107580;1261;74269;-76
2024/04/14 10:18:27;;;;;;;;;;;;;;;21.75;44.26;100361.50;107808;1259;71736;-78
2024/04/14 10:20:58;;;;;;;;;;;;;;;21.73;44.13;100357.71;107669;1260;71967;-78
2024/04/14 10:23:25;;;;;;;;;;;;;;;21.72;44.38;100353.16;107571;1265;62740;-79
2024/04/14 10:25:52;;;;;;;;;;;;;;;21.50;44.01;100349.86;107663;1262;60175;-77
2024/04/14 10:28:22;;;;;;;;;;;;;;;21.37;44.01;100349.23;107533;1264;75598;-77
2024/04/14 10:30:59;;;;;;;;;;;;;;;21.26;44.29;100344.25;107567;1262;72896;-79
2024/04/14 10:33:25;;;;;;;;;;;;;;;21.28;44.83;100340.59;107671;1261;72890;-76
2024/04/14 10:36:03;;;;;;;;;;;;;;;21.38;44.70;100332.59;107585;1260;62015;-76
2024/04/14 10:38:32;;;;;;;;;;;;;;;21.49;44.36;100322.09;107696;1259;62031;-77
2024/04/14 10:40:59;;;;;;;;;;;;;;;21.56;43.98;100320.55;107697;1259;75591;-78
2024/04/14 10:43:26;;;;;;;;;;;;;;;21.61;44.01;100318.16;107542;1260;72541;-78
2024/04/14 10:45:53;;;;;;;;;;;;;;;21.67;44.19;100312.39;107526;1260;72805;-78
2024/04/14 10:48:20;;;;;;;;;;;;;;;21.78;44.34;100305.61;107597;1264;61293;-77
2024/04/14 10:50:47;;;;;;;;;;;;;;;21.99;44.06;100292.54;107675;1259;61949;-78
2024/04/14 10:53:14;;;;;;;;;;;;;;;22.19;43.68;100287.03;107660;1260;75375;-78
2024/04/14 10:55:40;;;;;;;;;;;;;;;22.38;43.01;100283.66;107685;1259;72711;-76
2024/04/14 10:58:07;;;;;;;;;;;;;;;22.54;42.33;100276.56;107675;1263;72730;-78
2024/04/14 11:00:34;;;;;;;;;;;;;;;22.60;41.87;100269.91;107586;1261;62006;-77
2024/04/14 11:03:01;;;;;;;;;;;;;;;22.59;40.95;100270.34;107595;1262;61887;-77
2024/04/14 11:05:28;;;;;;;;;;;;;;;22.49;41.43;100263.94;107543;1263;75553;-76
2024/04/14 11:07:55;;;;;;;;;;;;;;;22.48;41.60;100256.58;107542;1261;72845;-77
2024/04/14 11:10:22;;;;;;;;;;;;;;;22.57;41.20;100250.16;107697;1261;70363;-78
2024/04/14 11:12:51;;;;;;;;;;;;;;;22.66;40.86;100234.16;107582;1263;61125;-77
2024/04/14 11:15:18;;;;;;;;;;;;;;;22.79;40.79;100230.67;107603;1261;62120;-78
2024/04/14 11:17:45;;;;;;;;;;;;;;;22.92;40.09;100227.48;107580;1262;75493;-78
2024/04/14 11:20:12;;;;;;;;;;;;;;;22.97;39.51;100224.60;107569;1259;72850;-76
2024/04/14 11:22:39;;;;;;;;;;;;;;;22.92;39.70;100224.60;107583;1261;73109;-77
2024/04/14 11:25:07;;;;;;;;;;;;;;;22.92;39.22;100214.01;107494;1259;62055;-77
2024/04/14 11:27:34;;;;;;;;;;;;;;;22.87;38.85;100210.39;107562;1262;61834;-77
2024/04/14 11:30:01;;;;;;;;;;;;;;;22.88;38.77;100213.34;107541;1262;75689;-76
2024/04/14 11:32:33;;;;;;;;;;;;;;;22.86;38.63;100202.95;107588;1261;72735;-77
2024/04/14 11:35:00;;;;;;;;;;;;;;;22.82;38.42;100196.06;107622;1259;72570;-77
2024/04/14 11:37:31;;;;;;;;;;;;;;;22.83;38.78;100194.86;107644;1263;61934;-77
2024/04/14 11:39:58;;;;;;;;;;;;;;;22.86;39.03;100192.85;107739;1259;61950;-77
2024/04/14 11:42:26;;;;;;;;;;;;;;;22.86;39.46;100187.54;107565;1259;75592;-77
2024/04/14 11:44:52;;;;;;;;;;;;;;;22.85;39.41;100178.51;107781;1262;71779;-77
2024/04/14 11:47:19;;;;;;;;;;;;;;;22.91;39.96;100170.41;107610;1261;72900;-77
2024/04/14 11:49:46;;;;;;;;;;;;;;;22.99;40.11;100161.45;107592;1259;61919;-78
2024/04/14 11:52:13;;;;;;;;;;;;;;;23.08;39.48;100152.73;107709;1263;61926;-78
2024/04/14 11:54:40;;;;;;;;;;;;;;;23.15;38.66;100149.81;107575;1262;73509;-78
2024/04/14 11:57:06;;;;;;;;;;;;;;;23.09;38.17;100143.43;107598;1260;72704;-78
2024/04/14 11:59:34;;;;;;;;;;;;;;;23.01;38.55;100133.19;107522;1262;72716;-78
2024/04/14 12:02:01;;;;;;;;;;;;;;;23.07;38.64;100135.58;107707;1259;62149;-78
2024/04/14 12:04:27;;;;;;;;;;;;;;;23.14;37.97;100122.63;107717;1259;61807;-79
2024/04/14 12:06:54;;;;;;;;;;;;;;;23.20;37.71;100113.88;107625;1262;75768;-77
2024/04/14 12:09:21;;;;;;;;;;;;;;;23.27;37.73;100107.11;107596;1263;72814;-78
2024/04/14 12:11:47;;;;;;;;;;;;;;;23.34;37.03;100105.89;107590;1259;72575;-76
2024/04/14 12:14:14;;;;;;;;;;;;;;;23.42;36.98;100098.59;107604;1259;61900;-77
2024/04/14 12:16:41;;;;;;;;;;;;;;;23.51;36.74;100100.50;107711;1260;61942;-77
2024/04/14 12:19:08;;;;;;;;;;;;;;;23.58;36.40;100089.06;107667;1259;76715;-77
2024/04/14 12:21:35;;;;;;;;;;;;;;;23.69;36.11;100087.05;107638;1261;72864;-79
2024/04/14 12:24:03;;;;;;;;;;;;;;;23.79;35.27;100085.70;107565;1260;72705;-76
2024/04/14 12:26:33;;;;;;;;;;;;;;;23.73;34.33;100076.25;107509;1259;60884;-77
2024/04/14 12:29:06;;;;;;;;;;;;;;;23.73;34.06;100063.30;100051;1259;10001633;-76
2024/04/14 12:31:33;;;;;;;;;;;;;;;23.77;34.15;100061.59;107528;1260;73006;-77